createdAt,value
2018-10-17T00:02:08.651Z,10.99
2018-10-17T00:04:36.951Z,10.91
2018-10-17T00:07:05.505Z,10.76
2018-10-17T00:09:33.808Z,10.90
2018-10-17T00:12:02.174Z,10.87
2018-10-17T00:14:30.482Z,10.90
2018-10-17T00:16:58.858Z,10.89
2018-10-17T00:19:27.159Z,10.94
2018-10-17T00:21:55.467Z,10.81
2018-10-17T00:24:26.150Z,10.76
2018-10-17T00:26:54.474Z,10.66
2018-10-17T00:29:22.793Z,10.66
2018-10-17T00:31:51.296Z,10.78
2018-10-17T00:34:19.670Z,10.86
2018-10-17T00:36:47.978Z,10.68
2018-10-17T00:39:16.282Z,10.72
2018-10-17T00:41:44.595Z,10.78
2018-10-17T00:44:13.183Z,10.63
2018-10-17T00:46:41.487Z,10.68
2018-10-17T00:49:10.189Z,10.67
2018-10-17T00:51:39.123Z,10.52
2018-10-17T00:54:07.734Z,10.35
2018-10-17T00:56:36.075Z,10.54
2018-10-17T00:59:08.949Z,10.54
2018-10-17T01:01:37.539Z,10.50
2018-10-17T01:04:06.245Z,10.56
2018-10-17T01:06:34.831Z,10.55
2018-10-17T01:09:06.151Z,10.38
2018-10-17T01:11:34.727Z,10.35
2018-10-17T01:14:03.801Z,10.40
2018-10-17T01:16:32.103Z,10.48
2018-10-17T01:19:00.685Z,10.38
2018-10-17T01:21:29.014Z,10.51
2018-10-17T01:23:57.319Z,10.31
2018-10-17T01:26:25.639Z,10.26
2018-10-17T01:28:53.977Z,10.43
2018-10-17T01:31:22.307Z,10.30
2018-10-17T01:33:50.814Z,10.27
2018-10-17T01:36:19.131Z,10.33
2018-10-17T01:38:47.475Z,10.32
2018-10-17T01:41:15.886Z,10.39
2018-10-17T01:43:44.134Z,10.26
2018-10-17T01:46:12.431Z,10.33
2018-10-17T01:48:40.762Z,10.29
2018-10-17T01:51:09.072Z,10.25
2018-10-17T01:53:37.405Z,10.21
2018-10-17T01:56:06.603Z,10.04
2018-10-17T01:58:35.359Z,9.95
2018-10-17T02:01:04.320Z,9.93
2018-10-17T02:03:32.623Z,9.97
2018-10-17T02:06:01.279Z,10.00
2018-10-17T02:08:29.607Z,10.21
2018-10-17T02:10:57.905Z,10.19
2018-10-17T02:13:26.220Z,10.09
2018-10-17T02:15:54.553Z,10.19
2018-10-17T02:18:22.866Z,10.12
2018-10-17T02:20:51.555Z,10.11
2018-10-17T02:23:19.879Z,10.14
2018-10-17T02:25:48.615Z,10.14
2018-10-17T02:28:16.954Z,10.13
2018-10-17T02:30:45.243Z,10.03
2018-10-17T02:33:13.567Z,10.17
2018-10-17T02:35:41.899Z,10.13
2018-10-17T02:38:10.219Z,10.00
2018-10-17T02:40:38.532Z,9.95
2018-10-17T02:43:06.856Z,9.93
2018-10-17T02:45:35.115Z,9.99
2018-10-17T02:48:03.468Z,9.91
2018-10-17T02:50:31.766Z,9.90
2018-10-17T02:53:00.139Z,9.82
2018-10-17T02:55:28.371Z,9.73
2018-10-17T02:57:56.687Z,9.68
2018-10-17T03:00:24.975Z,9.65
2018-10-17T03:02:53.575Z,9.82
2018-10-17T03:05:21.873Z,9.69
2018-10-17T03:07:50.194Z,9.57
2018-10-17T03:10:18.503Z,9.61
2018-10-17T03:12:46.811Z,9.46
2018-10-17T03:15:15.115Z,9.46
2018-10-17T03:17:43.420Z,9.45
2018-10-17T03:20:12.051Z,9.44
2018-10-17T03:22:40.443Z,9.44
2018-10-17T03:25:09.661Z,9.50
2018-10-17T03:27:37.981Z,9.41
2018-10-17T03:30:06.490Z,9.39
2018-10-17T03:32:34.823Z,9.44
2018-10-17T03:35:03.233Z,9.33
2018-10-17T03:37:31.488Z,9.24
2018-10-17T03:39:59.791Z,9.39
2018-10-17T03:42:28.111Z,9.37
2018-10-17T03:44:56.918Z,9.44
2018-10-17T03:47:25.230Z,9.45
2018-10-17T03:49:53.552Z,9.57
2018-10-17T03:52:21.896Z,9.45
2018-10-17T03:54:50.174Z,9.37
2018-10-17T03:57:18.502Z,9.43
2018-10-17T03:59:46.857Z,9.39
2018-10-17T04:02:15.317Z,9.39
2018-10-17T04:04:43.653Z,9.41
2018-10-17T04:07:12.046Z,9.26
2018-10-17T04:09:40.740Z,9.22
2018-10-17T04:12:09.022Z,9.39
2018-10-17T04:14:37.343Z,9.37
2018-10-17T04:17:07.039Z,9.36
2018-10-17T04:19:35.327Z,9.22
2018-10-17T04:22:03.628Z,9.27
2018-10-17T04:24:31.939Z,9.30
2018-10-17T04:27:00.216Z,9.35
2018-10-17T04:29:28.539Z,9.16
2018-10-17T04:31:57.159Z,9.04
2018-10-17T04:34:25.487Z,9.08
2018-10-17T04:36:53.816Z,9.08
2018-10-17T04:39:22.143Z,9.11
2018-10-17T04:41:50.439Z,9.00
2018-10-17T04:44:18.747Z,8.98
2018-10-17T04:46:47.039Z,8.98
2018-10-17T04:49:16.222Z,8.93
2018-10-17T04:51:44.631Z,8.85
2018-10-17T04:54:12.942Z,8.93
2018-10-17T04:56:41.263Z,8.91
2018-10-17T04:59:10.165Z,8.95
2018-10-17T05:01:38.639Z,9.00
2018-10-17T05:04:07.311Z,9.09
2018-10-17T05:06:35.642Z,8.83
2018-10-17T05:09:04.556Z,8.80
2018-10-17T05:11:32.847Z,8.73
2018-10-17T05:14:01.504Z,8.84
2018-10-17T05:16:29.792Z,8.99
2018-10-17T05:18:58.122Z,9.05
2018-10-17T05:21:26.499Z,8.99
2018-10-17T05:23:54.783Z,9.03
2018-10-17T05:26:23.107Z,9.09
2018-10-17T05:28:51.399Z,9.07
2018-10-17T05:31:19.732Z,9.03
2018-10-17T05:33:48.011Z,8.99
2018-10-17T05:36:16.391Z,8.98
2018-10-17T05:38:44.691Z,9.05
2018-10-17T05:41:13.103Z,9.11
2018-10-17T05:43:41.344Z,9.08
2018-10-17T05:46:09.668Z,9.15
2018-10-17T05:48:37.975Z,9.18
2018-10-17T05:51:06.318Z,9.14
2018-10-17T05:53:34.615Z,9.19
2018-10-17T05:56:02.931Z,9.26
2018-10-17T05:58:31.245Z,9.33
2018-10-17T06:00:59.619Z,9.37
2018-10-17T06:03:27.885Z,9.43
2018-10-17T06:05:56.209Z,9.51
2018-10-17T06:08:24.507Z,9.52
2018-10-17T06:10:53.082Z,9.59
2018-10-17T06:13:21.392Z,9.78
2018-10-17T06:15:49.704Z,9.86
2018-10-17T06:18:18.147Z,10.00
2018-10-17T06:20:46.516Z,10.09
2018-10-17T06:23:14.847Z,10.11
2018-10-17T06:25:43.145Z,10.31
2018-10-17T06:28:11.465Z,10.39
2018-10-17T06:30:39.839Z,10.51
2018-10-17T06:33:08.099Z,10.46
2018-10-17T06:35:36.430Z,10.81
2018-10-17T06:38:04.792Z,11.06
2018-10-17T06:40:33.129Z,11.42
2018-10-17T06:43:01.500Z,11.54
2018-10-17T06:45:29.776Z,11.61
2018-10-17T06:47:58.079Z,11.72
2018-10-17T06:50:26.407Z,11.84
2018-10-17T06:52:54.772Z,12.26
2018-10-17T06:55:23.056Z,12.54
2018-10-17T06:57:51.367Z,12.86
2018-10-17T07:00:19.678Z,12.87
2018-10-17T07:02:47.999Z,13.40
2018-10-17T07:05:16.359Z,13.82
2018-10-17T07:07:44.655Z,14.76
2018-10-17T07:10:12.975Z,16.51
2018-10-17T07:12:41.412Z,17.75
2018-10-17T07:15:09.742Z,18.20
2018-10-17T07:17:38.055Z,17.37
2018-10-17T07:20:07.535Z,16.92
2018-10-17T07:22:35.863Z,16.47
2018-10-17T07:25:04.543Z,16.20
2018-10-17T07:27:32.855Z,16.57
2018-10-17T07:30:01.156Z,16.96
2018-10-17T07:32:29.482Z,17.99
2018-10-17T07:34:57.796Z,18.22
2018-10-17T07:37:26.595Z,18.26
2018-10-17T07:39:54.904Z,18.10
2018-10-17T07:42:23.238Z,18.73
2018-10-17T07:44:51.623Z,19.17
2018-10-17T07:47:19.955Z,19.05
2018-10-17T07:49:48.269Z,18.83
2018-10-17T07:52:16.614Z,18.65
2018-10-17T07:54:44.953Z,18.82
2018-10-17T07:57:13.280Z,18.69
2018-10-17T07:59:41.611Z,19.37
2018-10-17T08:02:09.933Z,20.78
2018-10-17T08:04:38.274Z,22.82
2018-10-17T08:07:06.698Z,25.03
2018-10-17T08:09:34.965Z,25.99
2018-10-17T08:12:03.373Z,26.43
2018-10-17T08:14:31.619Z,25.82
2018-10-17T08:16:59.958Z,25.31
2018-10-17T08:19:28.255Z,26.82
2018-10-17T08:21:56.580Z,27.20
2018-10-17T08:24:24.891Z,28.34
2018-10-17T08:26:53.229Z,29.04
2018-10-17T08:29:21.523Z,28.41
2018-10-17T08:31:50.144Z,28.83
2018-10-17T08:34:18.442Z,28.83
2018-10-17T08:36:47.043Z,27.94
2018-10-17T08:39:16.171Z,28.93
2018-10-17T08:41:44.504Z,31.44
2018-10-17T08:44:13.117Z,30.30
2018-10-17T08:46:41.539Z,31.72
2018-10-17T08:49:09.843Z,32.50
2018-10-17T08:51:38.170Z,33.75
2018-10-17T08:54:06.823Z,31.89
2018-10-17T08:56:35.248Z,31.86
2018-10-17T08:59:03.571Z,33.37
2018-10-17T09:01:31.886Z,34.02
2018-10-17T09:04:00.664Z,32.26
2018-10-17T09:06:28.991Z,32.79
2018-10-17T09:08:57.628Z,31.36
2018-10-17T09:11:25.979Z,32.67
2018-10-17T09:13:54.372Z,34.48
2018-10-17T09:16:22.681Z,34.81
2018-10-17T09:18:50.982Z,35.67
2018-10-17T09:21:19.638Z,34.73
2018-10-17T09:23:47.702Z,34.97
2018-10-17T09:26:16.027Z,35.98
2018-10-17T09:28:44.322Z,36.71
2018-10-17T09:31:12.627Z,36.87
2018-10-17T09:33:40.931Z,37.62
2018-10-17T09:36:09.324Z,38.54
2018-10-17T09:38:37.573Z,39.25
2018-10-17T09:41:05.939Z,39.78
2018-10-17T09:43:34.250Z,41.27
2018-10-17T09:46:02.580Z,38.05
2018-10-17T09:48:30.888Z,40.78
2018-10-17T09:50:59.487Z,40.30
2018-10-17T09:53:27.900Z,37.15
2018-10-17T09:55:56.208Z,39.06
2018-10-17T09:58:24.503Z,38.50
2018-10-17T10:00:58.016Z,38.22
2018-10-17T10:03:26.347Z,39.09
2018-10-17T10:05:54.685Z,38.20
2018-10-17T10:08:23.012Z,37.46
2018-10-17T10:10:51.702Z,36.36
2018-10-17T10:13:20.003Z,36.67
2018-10-17T10:15:48.341Z,36.66
2018-10-17T10:18:16.664Z,37.74
2018-10-17T10:20:44.931Z,38.09
2018-10-17T10:23:13.270Z,37.65
2018-10-17T10:25:41.543Z,38.81
2018-10-17T10:28:10.380Z,38.85
2018-10-17T10:30:38.595Z,36.19
2018-10-17T10:33:06.883Z,36.94
2018-10-17T10:35:35.151Z,38.57
2018-10-17T10:38:03.442Z,39.42
2018-10-17T10:40:31.733Z,36.90
2018-10-17T10:42:59.993Z,37.79
2018-10-17T10:45:28.332Z,39.71
2018-10-17T10:47:56.595Z,39.97
2018-10-17T10:50:24.816Z,38.32
2018-10-17T10:52:53.192Z,38.54
2018-10-17T10:55:21.383Z,39.65
2018-10-17T10:57:49.723Z,38.31
2018-10-17T11:00:18.058Z,37.63
2018-10-17T11:02:46.283Z,38.56
2018-10-17T11:05:14.639Z,37.47
2018-10-17T11:07:42.903Z,37.03
2018-10-17T11:10:11.193Z,36.77
2018-10-17T11:12:39.463Z,37.43
2018-10-17T11:15:08.305Z,38.63
2018-10-17T11:17:36.591Z,38.89
2018-10-17T11:20:05.428Z,37.77
2018-10-17T11:22:33.699Z,39.07
2018-10-17T11:25:01.947Z,37.88
2018-10-17T11:27:30.268Z,37.39
2018-10-17T11:29:58.550Z,37.96
2018-10-17T11:32:26.836Z,38.32
2018-10-17T11:34:55.121Z,39.13
2018-10-17T11:37:23.491Z,36.67
2018-10-17T11:39:51.741Z,39.22
2018-10-17T11:42:20.005Z,39.97
2018-10-17T11:44:48.269Z,40.11
2018-10-17T11:47:16.629Z,41.39
2018-10-17T11:49:44.863Z,38.40
2018-10-17T11:52:13.152Z,36.49
2018-10-17T11:54:41.483Z,37.00
2018-10-17T11:57:10.876Z,36.79
2018-10-17T11:59:39.188Z,37.34
2018-10-17T12:02:07.486Z,40.08
2018-10-17T12:04:36.016Z,39.54
2018-10-17T12:07:04.040Z,38.87
2018-10-17T12:09:32.394Z,38.71
2018-10-17T12:12:00.745Z,38.53
2018-10-17T12:14:29.663Z,36.03
2018-10-17T12:16:57.958Z,35.24
2018-10-17T12:19:26.239Z,35.77
2018-10-17T12:21:54.555Z,35.79
2018-10-17T12:24:22.814Z,38.74
2018-10-17T12:26:51.108Z,39.37
2018-10-17T12:29:19.390Z,39.54
2018-10-17T12:31:47.652Z,38.96
2018-10-17T12:34:15.926Z,40.39
2018-10-17T12:36:44.215Z,41.47
2018-10-17T12:39:13.475Z,40.45
2018-10-17T12:41:42.156Z,39.73
2018-10-17T12:44:10.458Z,38.95
2018-10-17T12:46:38.692Z,39.17
2018-10-17T12:49:07.080Z,39.12
2018-10-17T12:51:35.347Z,39.84
2018-10-17T12:54:03.638Z,38.30
2018-10-17T12:56:31.895Z,39.77
2018-10-17T12:59:00.252Z,38.34
2018-10-17T13:01:29.391Z,40.04
2018-10-17T13:03:57.683Z,38.99
2018-10-17T13:06:25.955Z,40.01
2018-10-17T13:08:54.235Z,39.26
2018-10-17T13:11:22.608Z,38.89
2018-10-17T13:13:50.869Z,39.23
2018-10-17T13:16:19.143Z,38.06
2018-10-17T13:18:47.428Z,39.59
2018-10-17T13:21:15.715Z,38.60
2018-10-17T13:23:43.995Z,37.56
2018-10-17T13:26:12.279Z,37.89
2018-10-17T13:28:40.572Z,39.56
2018-10-17T13:31:08.869Z,39.28
2018-10-17T13:33:37.107Z,38.29
2018-10-17T13:36:05.414Z,37.72
2018-10-17T13:38:33.702Z,37.76
2018-10-17T13:41:02.048Z,39.08
2018-10-17T13:43:30.471Z,38.72
2018-10-17T13:45:58.738Z,37.65
2018-10-17T13:48:27.027Z,38.24
2018-10-17T13:50:55.292Z,36.95
2018-10-17T13:53:23.584Z,36.54
2018-10-17T13:55:51.857Z,37.02
2018-10-17T13:58:20.541Z,37.09
2018-10-17T14:00:48.971Z,36.01
2018-10-17T14:03:17.453Z,36.26
2018-10-17T14:05:45.710Z,35.16
2018-10-17T14:08:14.008Z,34.79
2018-10-17T14:10:42.287Z,35.20
2018-10-17T14:13:10.595Z,34.72
2018-10-17T14:15:38.883Z,35.34
2018-10-17T14:18:07.198Z,34.30
2018-10-17T14:20:35.459Z,34.36
2018-10-17T14:23:03.795Z,34.04
2018-10-17T14:25:32.560Z,32.87
2018-10-17T14:28:00.875Z,32.41
2018-10-17T14:30:29.264Z,32.42
2018-10-17T14:32:57.624Z,31.82
2018-10-17T14:35:25.851Z,32.01
2018-10-17T14:37:54.288Z,32.33
2018-10-17T14:40:22.467Z,32.00
2018-10-17T14:42:50.753Z,32.61
2018-10-17T14:45:19.079Z,32.26
2018-10-17T14:47:47.331Z,33.35
2018-10-17T14:50:15.588Z,34.05
2018-10-17T14:52:43.866Z,33.09
2018-10-17T14:55:12.161Z,32.31
2018-10-17T14:57:40.456Z,32.23
2018-10-17T15:00:12.516Z,31.73
2018-10-17T15:02:40.779Z,30.43
2018-10-17T15:05:09.406Z,29.80
2018-10-17T15:07:37.627Z,29.10
2018-10-17T15:10:06.218Z,28.29
2018-10-17T15:12:34.443Z,28.07
2018-10-17T15:15:02.815Z,28.36
2018-10-17T15:17:31.018Z,28.32
2018-10-17T15:19:59.307Z,27.83
2018-10-17T15:22:27.771Z,28.48
2018-10-17T15:24:56.333Z,28.84
2018-10-17T15:27:24.609Z,28.01
2018-10-17T15:29:52.918Z,27.29
2018-10-17T15:32:21.186Z,26.77
2018-10-17T15:34:49.487Z,26.74
2018-10-17T15:37:17.775Z,26.06
2018-10-17T15:39:46.387Z,25.81
2018-10-17T15:42:14.764Z,25.98
2018-10-17T15:44:42.963Z,25.50
2018-10-17T15:47:11.671Z,24.94
2018-10-17T15:49:39.977Z,24.93
2018-10-17T15:52:08.251Z,24.60
2018-10-17T15:54:36.541Z,24.10
2018-10-17T15:57:04.938Z,23.63
2018-10-17T15:59:33.230Z,23.23
2018-10-17T16:02:01.731Z,23.04
2018-10-17T16:04:29.947Z,22.59
2018-10-17T16:06:58.254Z,22.29
2018-10-17T16:09:26.529Z,22.02
2018-10-17T16:11:55.328Z,21.57
2018-10-17T16:14:23.915Z,21.04
2018-10-17T16:16:52.431Z,20.49
2018-10-17T16:19:20.695Z,20.16
2018-10-17T16:21:48.974Z,19.78
2018-10-17T16:24:17.283Z,19.33
2018-10-17T16:26:45.599Z,18.88
2018-10-17T16:29:13.863Z,18.64
2018-10-17T16:31:42.175Z,18.41
2018-10-17T16:34:10.473Z,18.17
2018-10-17T16:36:38.774Z,17.84
2018-10-17T16:39:11.800Z,17.67
2018-10-17T16:41:40.179Z,17.47
2018-10-17T16:44:08.769Z,17.29
2018-10-17T16:46:37.367Z,17.16
2018-10-17T16:49:06.090Z,16.98
2018-10-17T16:51:35.213Z,17.14
2018-10-17T16:54:03.635Z,17.04
2018-10-17T16:56:31.903Z,16.81
2018-10-17T16:59:00.168Z,16.68
2018-10-17T17:01:28.499Z,16.64
2018-10-17T17:03:56.797Z,16.54
2018-10-17T17:06:25.260Z,16.30
2018-10-17T17:08:53.548Z,16.14
2018-10-17T17:11:21.795Z,16.11
2018-10-17T17:13:50.331Z,15.97
2018-10-17T17:16:18.680Z,15.80
2018-10-17T17:18:46.907Z,15.92
2018-10-17T17:21:15.384Z,15.73
2018-10-17T17:23:43.632Z,15.59
2018-10-17T17:26:11.920Z,15.51
2018-10-17T17:28:40.187Z,15.34
2018-10-17T17:31:08.447Z,15.23
2018-10-17T17:33:36.728Z,15.17
2018-10-17T17:36:05.172Z,15.17
2018-10-17T17:38:33.454Z,15.15
2018-10-17T17:41:02.337Z,15.23
2018-10-17T17:43:33.144Z,15.20
2018-10-17T17:46:01.500Z,15.24
2018-10-17T17:48:29.743Z,15.11
2018-10-17T17:50:58.031Z,14.96
2018-10-17T17:53:26.407Z,15.15
2018-10-17T17:55:54.708Z,15.03
2018-10-17T17:58:23.099Z,14.98
2018-10-17T18:00:51.323Z,14.91
2018-10-17T18:03:19.626Z,14.86
2018-10-17T18:05:47.899Z,14.91
2018-10-17T18:08:16.179Z,14.83
2018-10-17T18:10:44.450Z,14.79
2018-10-17T18:13:12.715Z,14.73
2018-10-17T18:15:40.984Z,14.62
2018-10-17T18:18:09.261Z,14.71
2018-10-17T18:20:37.548Z,14.56
2018-10-17T18:23:06.391Z,14.63
2018-10-17T18:25:34.691Z,14.42
2018-10-17T18:28:03.056Z,14.32
2018-10-17T18:30:31.295Z,14.33
2018-10-17T18:32:59.591Z,14.40
2018-10-17T18:35:27.880Z,14.46
2018-10-17T18:37:56.292Z,14.44
2018-10-17T18:40:24.820Z,14.43
2018-10-17T18:42:53.067Z,14.48
2018-10-17T18:45:21.363Z,14.21
2018-10-17T18:47:49.812Z,14.20
2018-10-17T18:50:18.093Z,14.05
2018-10-17T18:52:46.372Z,14.08
2018-10-17T18:55:14.701Z,14.01
2018-10-17T18:57:43.000Z,13.98
2018-10-17T19:00:11.376Z,13.89
2018-10-17T19:02:39.758Z,14.02
2018-10-17T19:05:08.056Z,13.93
2018-10-17T19:07:36.379Z,13.90
2018-10-17T19:10:04.734Z,13.99
2018-10-17T19:12:33.059Z,13.89
2018-10-17T19:15:01.382Z,13.69
2018-10-17T19:17:30.564Z,13.66
2018-10-17T19:19:58.843Z,13.62
2018-10-17T19:22:27.420Z,13.71
2018-10-17T19:24:55.708Z,13.58
2018-10-17T19:27:24.001Z,13.50
2018-10-17T19:29:52.399Z,13.44
2018-10-17T19:32:20.683Z,13.37
2018-10-17T19:34:48.996Z,13.30
2018-10-17T19:37:17.267Z,13.41
2018-10-17T19:39:45.553Z,13.41
2018-10-17T19:42:13.823Z,13.43
2018-10-17T19:44:42.100Z,13.30
2018-10-17T19:47:10.375Z,13.23
2018-10-17T19:49:38.646Z,13.15
2018-10-17T19:52:07.220Z,13.03
2018-10-17T19:54:35.492Z,13.10
2018-10-17T19:57:04.000Z,12.89
2018-10-17T19:59:32.263Z,13.13
2018-10-17T20:02:00.584Z,13.10
2018-10-17T20:04:28.884Z,13.06
2018-10-17T20:06:57.267Z,13.18
2018-10-17T20:09:25.687Z,12.99
2018-10-17T20:11:54.009Z,12.97
2018-10-17T20:14:22.305Z,12.98
2018-10-17T20:16:50.683Z,12.91
2018-10-17T20:19:18.938Z,12.87
2018-10-17T20:21:47.223Z,12.77
2018-10-17T20:24:15.498Z,12.76
2018-10-17T20:26:43.864Z,12.80
2018-10-17T20:29:12.176Z,12.78
2018-10-17T20:31:40.468Z,12.72
2018-10-17T20:34:08.743Z,12.67
2018-10-17T20:36:37.020Z,12.69
2018-10-17T20:39:09.251Z,12.65
2018-10-17T20:41:37.540Z,12.59
2018-10-17T20:44:06.013Z,12.72
2018-10-17T20:46:34.251Z,12.73
2018-10-17T20:49:02.542Z,12.68
2018-10-17T20:51:31.159Z,12.56
2018-10-17T20:53:59.779Z,12.60
2018-10-17T20:56:28.056Z,12.47
2018-10-17T20:58:56.354Z,12.43
2018-10-17T21:01:24.623Z,12.39
2018-10-17T21:03:52.927Z,12.34
2018-10-17T21:06:21.196Z,12.33
2018-10-17T21:08:49.482Z,12.41
2018-10-17T21:11:17.883Z,12.38
2018-10-17T21:13:46.167Z,12.18
2018-10-17T21:16:14.443Z,12.07
2018-10-17T21:18:42.833Z,12.13
2018-10-17T21:21:11.035Z,12.20
2018-10-17T21:23:39.319Z,12.17
2018-10-17T21:26:07.617Z,12.18
2018-10-17T21:28:35.903Z,12.25
2018-10-17T21:31:04.184Z,11.98
2018-10-17T21:33:32.467Z,12.04
2018-10-17T21:36:00.716Z,12.06
2018-10-17T21:38:29.012Z,11.96
2018-10-17T21:40:57.291Z,11.93
2018-10-17T21:43:25.581Z,11.92
2018-10-17T21:45:53.836Z,11.73
2018-10-17T21:48:22.368Z,11.76
2018-10-17T21:50:50.627Z,11.83
2018-10-17T21:53:19.092Z,11.79
2018-10-17T21:55:47.563Z,11.79
2018-10-17T21:58:15.971Z,11.72
2018-10-17T22:00:44.287Z,11.82
2018-10-17T22:03:12.618Z,11.77
2018-10-17T22:05:40.880Z,11.76
2018-10-17T22:08:09.282Z,11.76
2018-10-17T22:10:37.455Z,11.72
2018-10-17T22:13:05.907Z,11.65
2018-10-17T22:15:34.567Z,11.60
2018-10-17T22:18:02.879Z,11.40
2018-10-17T22:20:31.152Z,11.59
2018-10-17T22:22:59.424Z,11.61
2018-10-17T22:25:27.716Z,11.54
2018-10-17T22:27:55.963Z,11.42
2018-10-17T22:30:24.239Z,11.46
2018-10-17T22:32:52.511Z,11.40
2018-10-17T22:35:20.791Z,11.42
2018-10-17T22:37:49.067Z,11.50
2018-10-17T22:40:17.351Z,11.41
2018-10-17T22:42:45.639Z,11.33
2018-10-17T22:45:13.920Z,11.29
2018-10-17T22:47:42.184Z,11.37
2018-10-17T22:50:11.193Z,11.27
2018-10-17T22:52:39.906Z,11.21
2018-10-17T22:55:08.267Z,11.27
2018-10-17T22:57:36.504Z,11.18
2018-10-17T23:00:05.551Z,11.23
2018-10-17T23:02:33.838Z,11.20
2018-10-17T23:05:02.129Z,11.18
2018-10-17T23:07:30.390Z,11.16
2018-10-17T23:09:58.702Z,11.17
2018-10-17T23:12:26.984Z,11.12
2018-10-17T23:14:55.267Z,11.15
2018-10-17T23:17:23.538Z,11.03
2018-10-17T23:19:51.823Z,11.02
2018-10-17T23:22:20.089Z,10.96
2018-10-17T23:24:48.375Z,11.07
2018-10-17T23:27:16.640Z,11.05
2018-10-17T23:29:44.920Z,11.14
2018-10-17T23:32:13.346Z,11.08
2018-10-17T23:34:41.481Z,11.03
2018-10-17T23:37:09.752Z,11.10
2018-10-17T23:39:38.028Z,11.00
2018-10-17T23:42:06.733Z,10.92
2018-10-17T23:44:34.926Z,10.91
2018-10-17T23:47:03.238Z,10.80
2018-10-17T23:49:33.984Z,10.78
2018-10-17T23:52:02.283Z,10.78
2018-10-17T23:54:30.535Z,10.75
2018-10-17T23:56:58.835Z,10.77
2018-10-17T23:59:27.091Z,10.69
